sensor_id;sensor_type;location;lat;lon;timestamp;pressure;altitude;pressure_sealevel;temperature;humidity
33191;BME280;19554;42.652;23.364;2022-07-06T00:01:30;94533.22;;;21.71;67.50
33191;BME280;19554;42.652;23.364;2022-07-06T00:03:55;94566.03;;;21.82;67.56
33191;BME280;19554;42.652;23.364;2022-07-06T00:06:21;94573.28;;;21.74;68.55
33191;BME280;19554;42.652;23.364;2022-07-06T00:08:47;94571.75;;;21.77;68.81
33191;BME280;19554;42.652;23.364;2022-07-06T00:11:12;94579.75;;;21.70;70.28
33191;BME280;19554;42.652;23.364;2022-07-06T00:13:38;94566.75;;;21.79;70.15
33191;BME280;19554;42.652;23.364;2022-07-06T00:16:04;94547.09;;;21.66;70.73
33191;BME280;19554;42.652;23.364;2022-07-06T00:18:29;94579.31;;;21.87;71.86
33191;BME280;19554;42.652;23.364;2022-07-06T00:20:55;94589.91;;;21.73;72.94
33191;BME280;19554;42.652;23.364;2022-07-06T00:23:21;94594.50;;;21.49;75.46
33191;BME280;19554;42.652;23.364;2022-07-06T00:25:46;94600.69;;;21.30;76.67
33191;BME280;19554;42.652;23.364;2022-07-06T00:28:13;94608.72;;;21.08;78.66
33191;BME280;19554;42.652;23.364;2022-07-06T00:30:39;94601.38;;;21.27;78.49
33191;BME280;19554;42.652;23.364;2022-07-06T00:33:04;94620.81;;;21.65;78.67
33191;BME280;19554;42.652;23.364;2022-07-06T00:35:30;94620.25;;;21.75;76.75
33191;BME280;19554;42.652;23.364;2022-07-06T00:37:55;94624.72;;;21.87;76.56
33191;BME280;19554;42.652;23.364;2022-07-06T00:40:21;94560.91;;;21.58;76.32
33191;BME280;19554;42.652;23.364;2022-07-06T00:42:47;94626.34;;;22.11;75.82
33191;BME280;19554;42.652;23.364;2022-07-06T00:45:14;94623.38;;;22.16;73.97
33191;BME280;19554;42.652;23.364;2022-07-06T00:47:41;94616.19;;;22.08;74.48
33191;BME280;19554;42.652;23.364;2022-07-06T00:50:08;94614.31;;;22.12;74.45
33191;BME280;19554;42.652;23.364;2022-07-06T00:52:45;94619.06;;;22.15;74.94
33191;BME280;19554;42.652;23.364;2022-07-06T00:55:12;94620.34;;;22.21;75.78
33191;BME280;19554;42.652;23.364;2022-07-06T00:57:38;94609.97;;;22.27;75.26
33191;BME280;19554;42.652;23.364;2022-07-06T01:00:06;94598.38;;;22.30;74.11
33191;BME280;19554;42.652;23.364;2022-07-06T01:02:33;94596.31;;;22.23;73.90
33191;BME280;19554;42.652;23.364;2022-07-06T01:05:00;94595.41;;;22.15;74.33
33191;BME280;19554;42.652;23.364;2022-07-06T01:07:26;94585.56;;;22.11;75.08
33191;BME280;19554;42.652;23.364;2022-07-06T01:09:53;94572.78;;;22.34;75.33
33191;BME280;19554;42.652;23.364;2022-07-06T01:12:18;94569.97;;;22.27;75.11
33191;BME280;19554;42.652;23.364;2022-07-06T01:14:45;94565.25;;;22.24;75.36
33191;BME280;19554;42.652;23.364;2022-07-06T01:17:10;94575.50;;;22.34;75.30
33191;BME280;19554;42.652;23.364;2022-07-06T01:19:37;94582.34;;;22.47;74.13
33191;BME280;19554;42.652;23.364;2022-07-06T01:22:03;94568.78;;;22.51;73.68
33191;BME280;19554;42.652;23.364;2022-07-06T01:24:28;94565.91;;;22.40;73.92
33191;BME280;19554;42.652;23.364;2022-07-06T01:26:54;94568.63;;;22.40;73.56
33191;BME280;19554;42.652;23.364;2022-07-06T01:29:19;94574.69;;;22.30;73.93
33191;BME280;19554;42.652;23.364;2022-07-06T01:31:49;94579.94;;;22.19;74.95
33191;BME280;19554;42.652;23.364;2022-07-06T01:34:16;94578.78;;;22.43;74.64
33191;BME280;19554;42.652;23.364;2022-07-06T01:36:41;94571.38;;;22.67;74.42
33191;BME280;19554;42.652;23.364;2022-07-06T01:39:08;94577.44;;;22.83;73.96
33191;BME280;19554;42.652;23.364;2022-07-06T01:41:34;94553.75;;;22.84;73.20
33191;BME280;19554;42.652;23.364;2022-07-06T01:43:59;94546.69;;;22.79;72.62
33191;BME280;19554;42.652;23.364;2022-07-06T01:46:25;94566.75;;;22.94;72.51
33191;BME280;19554;42.652;23.364;2022-07-06T01:48:50;94564.28;;;23.12;71.35
33191;BME280;19554;42.652;23.364;2022-07-06T01:51:15;94552.31;;;23.20;71.38
33191;BME280;19554;42.652;23.364;2022-07-06T01:53:41;94574.19;;;23.27;70.43
33191;BME280;19554;42.652;23.364;2022-07-06T01:56:07;94571.41;;;22.93;71.29
33191;BME280;19554;42.652;23.364;2022-07-06T01:58:32;94555.16;;;22.74;71.50
33191;BME280;19554;42.652;23.364;2022-07-06T02:00:58;94590.75;;;22.88;71.36
33191;BME280;19554;42.652;23.364;2022-07-06T02:03:24;94598.09;;;22.84;71.08
33191;BME280;19554;42.652;23.364;2022-07-06T02:05:49;94579.63;;;22.47;72.28
33191;BME280;19554;42.652;23.364;2022-07-06T02:08:15;94585.34;;;22.65;72.06
33191;BME280;19554;42.652;23.364;2022-07-06T02:10:40;94597.78;;;22.66;72.00
33191;BME280;19554;42.652;23.364;2022-07-06T02:13:07;94591.56;;;22.66;71.72
33191;BME280;19554;42.652;23.364;2022-07-06T02:15:32;94592.78;;;22.45;72.59
33191;BME280;19554;42.652;23.364;2022-07-06T02:17:58;94588.44;;;22.64;71.50
33191;BME280;19554;42.652;23.364;2022-07-06T02:20:23;94589.38;;;22.75;70.44
33191;BME280;19554;42.652;23.364;2022-07-06T02:22:49;94555.63;;;22.53;70.19
33191;BME280;19554;42.652;23.364;2022-07-06T02:25:14;94574.63;;;22.76;70.54
33191;BME280;19554;42.652;23.364;2022-07-06T02:27:39;94570.72;;;22.74;69.58
33191;BME280;19554;42.652;23.364;2022-07-06T02:30:05;94566.19;;;22.58;69.87
33191;BME280;19554;42.652;23.364;2022-07-06T02:32:31;94577.13;;;22.88;69.56
33191;BME280;19554;42.652;23.364;2022-07-06T02:34:56;94562.38;;;22.89;68.82
33191;BME280;19554;42.652;23.364;2022-07-06T02:37:24;94577.81;;;23.05;67.98
33191;BME280;19554;42.652;23.364;2022-07-06T02:39:49;94558.81;;;22.85;68.17
33191;BME280;19554;42.652;23.364;2022-07-06T02:42:14;94560.06;;;22.91;67.55
33191;BME280;19554;42.652;23.364;2022-07-06T02:44:40;94540.56;;;22.86;67.04
33191;BME280;19554;42.652;23.364;2022-07-06T02:47:05;94568.44;;;22.79;67.26
33191;BME280;19554;42.652;23.364;2022-07-06T02:49:31;94568.09;;;22.81;67.90
33191;BME280;19554;42.652;23.364;2022-07-06T02:51:56;94585.09;;;23.01;66.78
33191;BME280;19554;42.652;23.364;2022-07-06T02:54:22;94480.75;;;22.36;66.16
33191;BME280;19554;42.652;23.364;2022-07-06T02:56:47;94580.66;;;22.89;66.65
33191;BME280;19554;42.652;23.364;2022-07-06T02:59:17;94555.84;;;22.67;66.82
33191;BME280;19554;42.652;23.364;2022-07-06T03:01:43;94579.44;;;22.86;67.11
33191;BME280;19554;42.652;23.364;2022-07-06T03:04:08;94582.88;;;22.83;67.16
33191;BME280;19554;42.652;23.364;2022-07-06T03:06:34;94568.34;;;22.72;67.28
33191;BME280;19554;42.652;23.364;2022-07-06T03:08:59;94584.38;;;22.77;67.14
33191;BME280;19554;42.652;23.364;2022-07-06T03:11:25;94573.16;;;22.82;67.65
33191;BME280;19554;42.652;23.364;2022-07-06T03:13:51;94578.38;;;22.68;68.35
33191;BME280;19554;42.652;23.364;2022-07-06T03:16:16;94560.78;;;22.62;67.84
33191;BME280;19554;42.652;23.364;2022-07-06T03:18:42;94586.06;;;22.62;68.03
33191;BME280;19554;42.652;23.364;2022-07-06T03:21:07;94588.28;;;22.53;68.96
33191;BME280;19554;42.652;23.364;2022-07-06T03:23:33;94556.47;;;22.34;69.39
33191;BME280;19554;42.652;23.364;2022-07-06T03:25:58;94588.44;;;22.18;69.44
33191;BME280;19554;42.652;23.364;2022-07-06T03:28:24;94597.69;;;21.94;70.68
33191;BME280;19554;42.652;23.364;2022-07-06T03:30:49;94595.06;;;21.78;71.53
33191;BME280;19554;42.652;23.364;2022-07-06T03:33:14;94606.78;;;21.63;73.09
33191;BME280;19554;42.652;23.364;2022-07-06T03:35:40;94607.44;;;21.56;73.12
33191;BME280;19554;42.652;23.364;2022-07-06T03:38:05;94613.94;;;21.51;72.96
33191;BME280;19554;42.652;23.364;2022-07-06T03:40:31;94616.72;;;21.55;72.85
33191;BME280;19554;42.652;23.364;2022-07-06T03:42:56;94607.50;;;21.60;72.71
33191;BME280;19554;42.652;23.364;2022-07-06T03:45:21;94617.50;;;21.56;73.16
33191;BME280;19554;42.652;23.364;2022-07-06T03:47:47;94614.22;;;21.46;73.08
33191;BME280;19554;42.652;23.364;2022-07-06T03:50:12;94613.63;;;21.57;72.64
33191;BME280;19554;42.652;23.364;2022-07-06T03:52:38;94608.22;;;21.57;72.69
33191;BME280;19554;42.652;23.364;2022-07-06T03:55:08;94603.50;;;21.53;72.76
33191;BME280;19554;42.652;23.364;2022-07-06T03:57:34;94614.34;;;21.53;72.45
33191;BME280;19554;42.652;23.364;2022-07-06T03:59:59;94604.94;;;21.47;73.01
33191;BME280;19554;42.652;23.364;2022-07-06T04:02:25;94614.78;;;21.36;73.40
33191;BME280;19554;42.652;23.364;2022-07-06T04:04:50;94612.06;;;21.36;73.71
33191;BME280;19554;42.652;23.364;2022-07-06T04:07:16;94608.38;;;21.28;73.71
33191;BME280;19554;42.652;23.364;2022-07-06T04:09:41;94618.00;;;21.42;73.70
33191;BME280;19554;42.652;23.364;2022-07-06T04:12:07;94618.22;;;21.52;74.22
33191;BME280;19554;42.652;23.364;2022-07-06T04:14:32;94619.59;;;21.82;72.94
33191;BME280;19554;42.652;23.364;2022-07-06T04:16:58;94620.59;;;22.35;71.89
33191;BME280;19554;42.652;23.364;2022-07-06T04:19:23;94617.66;;;22.93;68.62
33191;BME280;19554;42.652;23.364;2022-07-06T04:21:48;94620.84;;;23.52;65.26
33191;BME280;19554;42.652;23.364;2022-07-06T04:24:14;94617.38;;;23.85;64.31
33191;BME280;19554;42.652;23.364;2022-07-06T04:26:39;94564.34;;;23.79;61.08
33191;BME280;19554;42.652;23.364;2022-07-06T04:29:05;94622.28;;;24.44;60.78
33191;BME280;19554;42.652;23.364;2022-07-06T04:31:30;94621.38;;;24.73;59.01
33191;BME280;19554;42.652;23.364;2022-07-06T04:33:55;94626.97;;;24.88;58.20
33191;BME280;19554;42.652;23.364;2022-07-06T04:36:21;94623.19;;;25.03;57.10
33191;BME280;19554;42.652;23.364;2022-07-06T04:38:46;94596.44;;;24.75;56.73
33191;BME280;19554;42.652;23.364;2022-07-06T04:41:12;94633.50;;;25.27;56.34
33191;BME280;19554;42.652;23.364;2022-07-06T04:43:38;94635.94;;;25.43;56.15
33191;BME280;19554;42.652;23.364;2022-07-06T04:46:03;94639.50;;;25.47;55.54
33191;BME280;19554;42.652;23.364;2022-07-06T04:48:30;94650.78;;;25.42;54.46
33191;BME280;19554;42.652;23.364;2022-07-06T04:50:57;94654.63;;;25.31;55.28
33191;BME280;19554;42.652;23.364;2022-07-06T04:53:22;94664.75;;;25.26;55.22
33191;BME280;19554;42.652;23.364;2022-07-06T04:55:48;94658.44;;;25.22;55.85
33191;BME280;19554;42.652;23.364;2022-07-06T04:58:13;94643.13;;;25.11;55.45
33191;BME280;19554;42.652;23.364;2022-07-06T05:00:39;94666.94;;;25.10;55.56
33191;BME280;19554;42.652;23.364;2022-07-06T05:03:04;94635.03;;;24.32;56.73
33191;BME280;19554;42.652;23.364;2022-07-06T05:05:29;94672.78;;;24.30;57.65
33191;BME280;19554;42.652;23.364;2022-07-06T05:07:55;94676.06;;;24.09;58.51
33191;BME280;19554;42.652;23.364;2022-07-06T05:10:20;94686.84;;;23.99;58.98
33191;BME280;19554;42.652;23.364;2022-07-06T05:12:46;94683.63;;;23.89;59.13
33191;BME280;19554;42.652;23.364;2022-07-06T05:15:11;94677.28;;;23.82;58.61
33191;BME280;19554;42.652;23.364;2022-07-06T05:17:37;94680.75;;;23.49;59.54
33191;BME280;19554;42.652;23.364;2022-07-06T05:20:04;94684.81;;;23.35;60.25
33191;BME280;19554;42.652;23.364;2022-07-06T05:22:29;94690.69;;;23.37;59.54
33191;BME280;19554;42.652;23.364;2022-07-06T05:24:55;94683.31;;;23.11;60.13
33191;BME280;19554;42.652;23.364;2022-07-06T05:27:20;94675.00;;;22.81;61.62
33191;BME280;19554;42.652;23.364;2022-07-06T05:29:45;94680.56;;;22.88;62.14
33191;BME280;19554;42.652;23.364;2022-07-06T05:32:11;94691.78;;;23.06;61.85
33191;BME280;19554;42.652;23.364;2022-07-06T05:34:36;94702.41;;;23.15;60.47
33191;BME280;19554;42.652;23.364;2022-07-06T05:37:03;94702.09;;;23.20;61.35
33191;BME280;19554;42.652;23.364;2022-07-06T05:39:28;94694.75;;;23.51;60.26
33191;BME280;19554;42.652;23.364;2022-07-06T05:41:54;94679.47;;;23.69;59.93
33191;BME280;19554;42.652;23.364;2022-07-06T05:44:19;94701.50;;;24.17;58.60
33191;BME280;19554;42.652;23.364;2022-07-06T05:46:45;94664.25;;;23.98;56.72
33191;BME280;19554;42.652;23.364;2022-07-06T05:49:10;94710.66;;;24.35;56.27
33191;BME280;19554;42.652;23.364;2022-07-06T05:51:54;94706.94;;;24.51;55.98
33191;BME280;19554;42.652;23.364;2022-07-06T05:54:19;94714.00;;;24.52;55.42
33191;BME280;19554;42.652;23.364;2022-07-06T05:56:45;94705.25;;;24.39;55.39
33191;BME280;19554;42.652;23.364;2022-07-06T05:59:10;94700.84;;;24.27;56.33
33191;BME280;19554;42.652;23.364;2022-07-06T06:01:36;94709.03;;;24.27;56.11
33191;BME280;19554;42.652;23.364;2022-07-06T06:04:01;94709.09;;;24.34;55.88
33191;BME280;19554;42.652;23.364;2022-07-06T06:06:27;94702.34;;;24.55;55.80
33191;BME280;19554;42.652;23.364;2022-07-06T06:08:52;94692.41;;;24.77;54.93
33191;BME280;19554;42.652;23.364;2022-07-06T06:11:17;94709.75;;;25.02;54.65
33191;BME280;19554;42.652;23.364;2022-07-06T06:13:43;94666.69;;;24.81;54.58
33191;BME280;19554;42.652;23.364;2022-07-06T06:16:09;94708.66;;;25.07;53.96
33191;BME280;19554;42.652;23.364;2022-07-06T06:18:35;94702.63;;;24.87;54.34
33191;BME280;19554;42.652;23.364;2022-07-06T06:21:00;94713.50;;;24.80;54.10
33191;BME280;19554;42.652;23.364;2022-07-06T06:23:26;94633.84;;;23.96;54.34
33191;BME280;19554;42.652;23.364;2022-07-06T06:25:51;94703.56;;;24.27;55.02
33191;BME280;19554;42.652;23.364;2022-07-06T06:28:17;94700.34;;;24.18;54.94
33191;BME280;19554;42.652;23.364;2022-07-06T06:30:42;94705.84;;;23.92;56.30
33191;BME280;19554;42.652;23.364;2022-07-06T06:35:35;94705.97;;;24.02;56.18
33191;BME280;19554;42.652;23.364;2022-07-06T06:38:01;94699.31;;;24.00;56.25
33191;BME280;19554;42.652;23.364;2022-07-06T06:40:27;94702.91;;;24.04;56.45
33191;BME280;19554;42.652;23.364;2022-07-06T06:42:52;94702.81;;;23.97;56.49
33191;BME280;19554;42.652;23.364;2022-07-06T06:45:18;94700.03;;;23.93;56.86
33191;BME280;19554;42.652;23.364;2022-07-06T06:47:43;94693.78;;;23.93;57.02
33191;BME280;19554;42.652;23.364;2022-07-06T06:50:08;94700.44;;;23.95;57.36
33191;BME280;19554;42.652;23.364;2022-07-06T06:52:34;94694.44;;;23.82;57.67
33191;BME280;19554;42.652;23.364;2022-07-06T06:54:59;94662.31;;;23.38;57.93
33191;BME280;19554;42.652;23.364;2022-07-06T06:57:25;94692.28;;;23.38;58.72
33191;BME280;19554;42.652;23.364;2022-07-06T06:59:50;94615.44;;;22.99;58.60
33191;BME280;19554;42.652;23.364;2022-07-06T07:02:15;94695.69;;;23.62;58.91
33191;BME280;19554;42.652;23.364;2022-07-06T07:04:41;94693.38;;;23.64;58.51
33191;BME280;19554;42.652;23.364;2022-07-06T07:07:07;94687.38;;;23.78;58.11
33191;BME280;19554;42.652;23.364;2022-07-06T07:09:32;94699.09;;;23.82;57.81
33191;BME280;19554;42.652;23.364;2022-07-06T07:11:57;94640.38;;;23.58;56.96
33191;BME280;19554;42.652;23.364;2022-07-06T07:14:23;94689.28;;;24.04;56.93
33191;BME280;19554;42.652;23.364;2022-07-06T07:16:48;94699.22;;;23.93;58.41
33191;BME280;19554;42.652;23.364;2022-07-06T07:19:14;94691.00;;;24.19;57.24
33191;BME280;19554;42.652;23.364;2022-07-06T07:21:39;94701.28;;;24.33;56.01
33191;BME280;19554;42.652;23.364;2022-07-06T07:24:05;94698.94;;;24.31;55.99
33191;BME280;19554;42.652;23.364;2022-07-06T07:26:32;94696.53;;;24.26;55.89
33191;BME280;19554;42.652;23.364;2022-07-06T07:28:57;94698.78;;;24.17;56.84
33191;BME280;19554;42.652;23.364;2022-07-06T07:31:23;94690.81;;;24.05;56.51
33191;BME280;19554;42.652;23.364;2022-07-06T07:33:48;94695.78;;;23.96;56.68
33191;BME280;19554;42.652;23.364;2022-07-06T07:36:14;94656.28;;;23.82;56.77
33191;BME280;19554;42.652;23.364;2022-07-06T07:38:39;94692.44;;;24.09;57.19
33191;BME280;19554;42.652;23.364;2022-07-06T07:41:05;94692.19;;;24.22;56.66
33191;BME280;19554;42.652;23.364;2022-07-06T07:43:31;94682.31;;;24.10;56.92
33191;BME280;19554;42.652;23.364;2022-07-06T07:45:56;94686.44;;;24.30;56.03
33191;BME280;19554;42.652;23.364;2022-07-06T07:48:22;94624.56;;;24.01;55.37
33191;BME280;19554;42.652;23.364;2022-07-06T07:50:47;94687.31;;;24.38;55.32
33191;BME280;19554;42.652;23.364;2022-07-06T07:53:13;94680.66;;;24.35;54.84
33191;BME280;19554;42.652;23.364;2022-07-06T07:55:38;94682.19;;;24.70;55.37
33191;BME280;19554;42.652;23.364;2022-07-06T07:58:03;94689.66;;;25.21;53.97
33191;BME280;19554;42.652;23.364;2022-07-06T08:00:29;94673.09;;;25.55;52.39
33191;BME280;19554;42.652;23.364;2022-07-06T08:02:55;94682.84;;;25.52;52.69
33191;BME280;19554;42.652;23.364;2022-07-06T08:05:20;94626.50;;;25.30;52.75
33191;BME280;19554;42.652;23.364;2022-07-06T08:07:46;94614.00;;;25.33;51.57
33191;BME280;19554;42.652;23.364;2022-07-06T08:10:11;94668.97;;;25.83;51.58
33191;BME280;19554;42.652;23.364;2022-07-06T08:12:37;94682.69;;;25.90;50.58
33191;BME280;19554;42.652;23.364;2022-07-06T08:15:03;94690.63;;;26.16;49.56
33191;BME280;19554;42.652;23.364;2022-07-06T08:17:29;94694.16;;;26.24;49.22
33191;BME280;19554;42.652;23.364;2022-07-06T08:19:55;94673.84;;;26.36;48.63
33191;BME280;19554;42.652;23.364;2022-07-06T08:22:20;94682.53;;;26.52;49.13
33191;BME280;19554;42.652;23.364;2022-07-06T08:24:46;94668.47;;;26.50;49.38
33191;BME280;19554;42.652;23.364;2022-07-06T08:27:11;94646.59;;;26.61;47.81
33191;BME280;19554;42.652;23.364;2022-07-06T08:29:37;94628.50;;;26.28;47.43
33191;BME280;19554;42.652;23.364;2022-07-06T08:32:03;94680.19;;;26.51;47.56
33191;BME280;19554;42.652;23.364;2022-07-06T08:34:28;94682.94;;;26.54;47.48
33191;BME280;19554;42.652;23.364;2022-07-06T08:36:54;94681.41;;;26.60;47.58
33191;BME280;19554;42.652;23.364;2022-07-06T08:39:19;94678.28;;;26.87;47.42
33191;BME280;19554;42.652;23.364;2022-07-06T08:41:47;94674.38;;;27.06;46.36
33191;BME280;19554;42.652;23.364;2022-07-06T08:44:16;94649.34;;;27.14;46.09
33191;BME280;19554;42.652;23.364;2022-07-06T08:46:43;94672.41;;;27.35;45.97
33191;BME280;19554;42.652;23.364;2022-07-06T08:49:13;94674.03;;;27.18;46.05
33191;BME280;19554;42.652;23.364;2022-07-06T08:51:40;94674.81;;;27.15;45.70
33191;BME280;19554;42.652;23.364;2022-07-06T08:54:07;94674.00;;;27.14;45.92
33191;BME280;19554;42.652;23.364;2022-07-06T08:56:33;94671.25;;;27.14;47.06
33191;BME280;19554;42.652;23.364;2022-07-06T08:58:59;94646.59;;;27.14;46.68
33191;BME280;19554;42.652;23.364;2022-07-06T09:01:25;94674.00;;;27.43;46.50
33191;BME280;19554;42.652;23.364;2022-07-06T09:03:51;94677.16;;;27.16;47.51
33191;BME280;19554;42.652;23.364;2022-07-06T09:06:21;94665.00;;;27.17;46.48
33191;BME280;19554;42.652;23.364;2022-07-06T09:08:49;94665.38;;;27.27;46.80
33191;BME280;19554;42.652;23.364;2022-07-06T09:11:14;94672.41;;;27.49;46.87
33191;BME280;19554;42.652;23.364;2022-07-06T09:13:40;94673.59;;;27.41;46.75
33191;BME280;19554;42.652;23.364;2022-07-06T09:16:12;94659.53;;;27.32;46.69
33191;BME280;19554;42.652;23.364;2022-07-06T09:18:38;94669.31;;;27.11;48.27
33191;BME280;19554;42.652;23.364;2022-07-06T09:21:05;94647.78;;;26.70;49.30
33191;BME280;19554;42.652;23.364;2022-07-06T09:23:31;94675.16;;;26.70;48.21
33191;BME280;19554;42.652;23.364;2022-07-06T09:25:57;94680.56;;;26.49;48.33
33191;BME280;19554;42.652;23.364;2022-07-06T09:28:23;94677.06;;;26.52;48.38
33191;BME280;19554;42.652;23.364;2022-07-06T09:30:48;94645.63;;;26.07;48.67
33191;BME280;19554;42.652;23.364;2022-07-06T09:33:17;94671.50;;;26.31;49.24
33191;BME280;19554;42.652;23.364;2022-07-06T09:35:43;94678.94;;;26.27;49.75
33191;BME280;19554;42.652;23.364;2022-07-06T09:38:14;94675.00;;;26.20;49.62
33191;BME280;19554;42.652;23.364;2022-07-06T09:40:42;94678.53;;;26.24;49.98
33191;BME280;19554;42.652;23.364;2022-07-06T09:45:36;94669.56;;;26.42;48.92
33191;BME280;19554;42.652;23.364;2022-07-06T09:48:09;94661.41;;;26.49;48.74
33191;BME280;19554;42.652;23.364;2022-07-06T09:50:40;94662.53;;;26.34;48.88
33191;BME280;19554;42.652;23.364;2022-07-06T09:53:06;94657.78;;;26.09;49.10
33191;BME280;19554;42.652;23.364;2022-07-06T09:55:32;94651.09;;;26.07;49.24
33191;BME280;19554;42.652;23.364;2022-07-06T09:57:57;94658.91;;;26.08;50.16
33191;BME280;19554;42.652;23.364;2022-07-06T10:00:23;94626.94;;;26.27;51.10
33191;BME280;19554;42.652;23.364;2022-07-06T10:02:49;94655.16;;;26.59;48.71
33191;BME280;19554;42.652;23.364;2022-07-06T10:05:17;94653.63;;;26.65;49.77
33191;BME280;19554;42.652;23.364;2022-07-06T10:07:45;94658.31;;;26.61;49.11
33191;BME280;19554;42.652;23.364;2022-07-06T10:10:15;94650.09;;;26.76;48.56
33191;BME280;19554;42.652;23.364;2022-07-06T10:12:42;94658.31;;;26.83;47.93
33191;BME280;19554;42.652;23.364;2022-07-06T10:15:10;94649.31;;;26.86;47.74
33191;BME280;19554;42.652;23.364;2022-07-06T10:17:37;94650.88;;;26.87;47.67
33191;BME280;19554;42.652;23.364;2022-07-06T10:20:05;94649.72;;;26.88;47.51
33191;BME280;19554;42.652;23.364;2022-07-06T10:22:31;94655.19;;;27.02;47.98
33191;BME280;19554;42.652;23.364;2022-07-06T10:24:56;94640.34;;;26.92;47.07
33191;BME280;19554;42.652;23.364;2022-07-06T10:27:24;94594.13;;;26.34;47.89
33191;BME280;19554;42.652;23.364;2022-07-06T10:29:50;94631.72;;;26.58;48.41
33191;BME280;19554;42.652;23.364;2022-07-06T10:32:19;94639.94;;;26.65;47.99
33191;BME280;19554;42.652;23.364;2022-07-06T10:34:45;94642.66;;;26.73;47.65
33191;BME280;19554;42.652;23.364;2022-07-06T10:37:22;94629.75;;;26.77;47.14
33191;BME280;19554;42.652;23.364;2022-07-06T10:39:49;94619.19;;;26.86;46.87
33191;BME280;19554;42.652;23.364;2022-07-06T10:45:05;94641.09;;;27.00;47.88
33191;BME280;19554;42.652;23.364;2022-07-06T10:47:30;94631.72;;;26.87;48.24
33191;BME280;19554;42.652;23.364;2022-07-06T10:49:59;94573.00;;;26.38;48.20
33191;BME280;19554;42.652;23.364;2022-07-06T10:52:52;94625.84;;;26.81;47.68
33191;BME280;19554;42.652;23.364;2022-07-06T10:55:39;94636.03;;;26.95;47.29
33191;BME280;19554;42.652;23.364;2022-07-06T10:58:05;94634.06;;;26.99;46.87
33191;BME280;19554;42.652;23.364;2022-07-06T11:00:56;94637.22;;;27.08;47.34
33191;BME280;19554;42.652;23.364;2022-07-06T11:06:20;94635.66;;;27.29;46.22
33191;BME280;19554;42.652;23.364;2022-07-06T11:08:56;94636.00;;;27.38;45.48
33191;BME280;19554;42.652;23.364;2022-07-06T11:16:26;94608.66;;;26.88;46.37
33191;BME280;19554;42.652;23.364;2022-07-06T11:21:39;94620.00;;;27.19;46.69
33191;BME280;19554;42.652;23.364;2022-07-06T11:24:07;94622.31;;;27.24;46.70
33191;BME280;19554;42.652;23.364;2022-07-06T11:26:34;94596.50;;;26.96;46.17
33191;BME280;19554;42.652;23.364;2022-07-06T11:29:03;94623.50;;;27.30;46.02
33191;BME280;19554;42.652;23.364;2022-07-06T11:31:29;94625.44;;;27.40;44.24
33191;BME280;19554;42.652;23.364;2022-07-06T11:33:54;94621.53;;;27.27;44.65
33191;BME280;19554;42.652;23.364;2022-07-06T11:36:22;94616.84;;;27.27;44.80
33191;BME280;19554;42.652;23.364;2022-07-06T11:38:49;94613.34;;;27.05;44.96
33191;BME280;19554;42.652;23.364;2022-07-06T11:41:15;94599.66;;;26.84;45.92
33191;BME280;19554;42.652;23.364;2022-07-06T11:43:45;94605.09;;;26.69;45.47
33191;BME280;19554;42.652;23.364;2022-07-06T11:46:22;94601.59;;;26.55;46.22
33191;BME280;19554;42.652;23.364;2022-07-06T11:48:53;94592.16;;;26.38;46.75
33191;BME280;19554;42.652;23.364;2022-07-06T11:51:20;94600.38;;;26.38;46.03
33191;BME280;19554;42.652;23.364;2022-07-06T11:53:47;94588.69;;;26.48;45.74
33191;BME280;19554;42.652;23.364;2022-07-06T11:56:16;94593.34;;;26.40;46.21
33191;BME280;19554;42.652;23.364;2022-07-06T11:58:49;94602.78;;;26.54;45.51
33191;BME280;19554;42.652;23.364;2022-07-06T12:01:15;94593.38;;;26.65;45.18
33191;BME280;19554;42.652;23.364;2022-07-06T12:03:42;94589.47;;;26.81;45.00
33191;BME280;19554;42.652;23.364;2022-07-06T12:06:20;94591.03;;;26.89;44.22
33191;BME280;19554;42.652;23.364;2022-07-06T12:08:51;94585.94;;;26.77;44.69
33191;BME280;19554;42.652;23.364;2022-07-06T12:11:25;94585.16;;;26.87;44.98
33191;BME280;19554;42.652;23.364;2022-07-06T12:13:52;94585.56;;;26.67;43.98
33191;BME280;19554;42.652;23.364;2022-07-06T12:16:19;94572.25;;;26.48;44.41
33191;BME280;19554;42.652;23.364;2022-07-06T12:18:46;94587.13;;;26.54;44.42
33191;BME280;19554;42.652;23.364;2022-07-06T12:21:15;94587.88;;;26.37;44.90
33191;BME280;19554;42.652;23.364;2022-07-06T12:23:46;94580.78;;;26.21;45.44
33191;BME280;19554;42.652;23.364;2022-07-06T12:26:18;94592.13;;;26.16;45.66
33191;BME280;19554;42.652;23.364;2022-07-06T12:28:45;94591.72;;;26.21;45.67
33191;BME280;19554;42.652;23.364;2022-07-06T12:31:11;94545.59;;;25.95;45.95
33191;BME280;19554;42.652;23.364;2022-07-06T12:33:37;94587.88;;;26.33;45.05
33191;BME280;19554;42.652;23.364;2022-07-06T12:36:13;94537.78;;;26.18;44.59
33191;BME280;19554;42.652;23.364;2022-07-06T12:38:47;94586.31;;;26.46;43.96
33191;BME280;19554;42.652;23.364;2022-07-06T12:41:32;94573.00;;;26.45;43.95
33191;BME280;19554;42.652;23.364;2022-07-06T12:44:07;94581.66;;;26.47;45.12
33191;BME280;19554;42.652;23.364;2022-07-06T12:46:38;94544.44;;;26.39;45.61
33191;BME280;19554;42.652;23.364;2022-07-06T12:49:20;94573.78;;;26.31;45.78
33191;BME280;19554;42.652;23.364;2022-07-06T12:52:11;94562.81;;;26.28;45.70
33191;BME280;19554;42.652;23.364;2022-07-06T12:54:55;94568.31;;;26.35;45.63
33191;BME280;19554;42.652;23.364;2022-07-06T12:57:24;94558.13;;;26.39;46.55
33191;BME280;19554;42.652;23.364;2022-07-06T13:02:26;94560.50;;;26.44;45.32
33191;BME280;19554;42.652;23.364;2022-07-06T13:05:04;94563.59;;;26.39;44.97
33191;BME280;19554;42.652;23.364;2022-07-06T13:07:32;94565.22;;;26.47;44.45
33191;BME280;19554;42.652;23.364;2022-07-06T13:10:01;94565.22;;;26.58;44.32